Time;durP1;ratioP1;P1;durP2;ratioP2;P2;SDS_P1;SDS_P2;PMS_P1;PMS_P2;Temp;Humidity;BMP_temperature;BMP_pressure;BME280_temperature;BME280_humidity;BME280_pressure;Samples;Min_cycle;Max_cycle;Signal;HPM_P1;HPM_P2
2021/05/30 00:01:57;;;;;;;3.83;2.90;;;18.60;55.20;;;;;;4951232;28;20137;-89
2021/05/30 00:04:23;;;;;;;4.35;3.30;;;18.60;55.30;;;;;;4941248;28;20109;-91
2021/05/30 00:06:49;;;;;;;3.78;3.15;;;18.50;55.20;;;;;;4964536;28;20045;-90
2021/05/30 00:09:15;;;;;;;3.53;2.75;;;18.40;55.20;;;;;;4927942;28;20483;-90
2021/05/30 00:11:41;;;;;;;4.47;3.10;;;18.40;56.00;;;;;;4937625;28;20035;-90
2021/05/30 00:14:07;;;;;;;4.10;3.25;;;18.40;55.40;;;;;;4965451;28;20416;-90
2021/05/30 00:16:33;;;;;;;4.72;3.22;;;18.30;55.40;;;;;;4952087;28;20090;-87
2021/05/30 00:19:04;;;;;;;4.43;3.40;;;18.30;55.40;;;;;;4946085;28;20055;-90
2021/05/30 00:21:30;;;;;;;4.20;3.35;;;18.30;55.60;;;;;;4969956;28;20055;-89
2021/05/30 00:23:58;;;;;;;4.47;3.45;;;18.20;55.50;;;;;;4950437;28;20478;-88
2021/05/30 00:26:24;;;;;;;4.70;3.50;;;18.20;55.60;;;;;;4954260;28;20031;-90
2021/05/30 00:28:50;;;;;;;4.40;3.50;;;18.10;55.60;;;;;;4936163;28;20031;-90
2021/05/30 00:31:16;;;;;;;4.60;3.13;;;18.10;55.70;;;;;;4935724;28;20035;-91
2021/05/30 00:33:41;;;;;;;4.28;3.35;;;18.00;55.70;;;;;;4963979;28;20385;-88
2021/05/30 00:36:07;;;;;;;4.15;3.20;;;18.00;55.70;;;;;;4939888;28;20373;-89
2021/05/30 00:38:33;;;;;;;4.45;3.38;;;18.00;55.80;;;;;;4954117;28;20051;-89
2021/05/30 00:40:59;;;;;;;4.55;3.60;;;17.90;55.80;;;;;;4935036;28;20054;-85
2021/05/30 00:43:25;;;;;;;4.57;3.40;;;17.90;55.80;;;;;;4970592;28;20034;-87
2021/05/30 00:45:51;;;;;;;4.40;3.42;;;17.80;55.80;;;;;;4946758;28;20046;-89
2021/05/30 00:48:17;;;;;;;4.95;3.38;;;17.80;55.90;;;;;;4946075;28;20031;-89
2021/05/30 00:50:43;;;;;;;4.55;3.30;;;17.70;55.90;;;;;;4953512;28;20030;-90
2021/05/30 00:53:10;;;;;;;5.10;3.63;;;17.70;56.00;;;;;;4939550;28;20045;-90
2021/05/30 00:55:37;;;;;;;4.78;3.97;;;17.60;56.00;;;;;;4963330;28;20118;-89
2021/05/30 00:58:03;;;;;;;4.50;3.40;;;17.60;56.70;;;;;;4953966;28;20039;-88
2021/05/30 01:00:30;;;;;;;4.35;3.38;;;17.60;56.10;;;;;;4920020;28;20402;-89
2021/05/30 01:02:55;;;;;;;5.57;3.58;;;17.50;56.10;;;;;;4944431;28;21111;-89
2021/05/30 01:05:21;;;;;;;5.32;3.75;;;17.50;56.20;;;;;;4960122;28;20030;-90
2021/05/30 01:07:48;;;;;;;5.28;3.60;;;17.40;56.20;;;;;;4919237;29;20131;-90
2021/05/30 01:10:29;;;;;;;4.43;3.53;;;17.40;56.20;;;;;;4912637;28;20110;-84
2021/05/30 01:12:59;;;;;;;4.80;4.00;;;17.30;56.30;;;;;;4967773;28;20499;-91
2021/05/30 01:15:30;;;;;;;5.03;3.70;;;17.30;56.30;;;;;;4953795;28;20063;-90
2021/05/30 01:17:56;;;;;;;4.45;3.38;;;17.30;56.30;;;;;;4962607;28;20022;-90
2021/05/30 01:20:24;;;;;;;5.28;3.95;;;17.20;56.30;;;;;;4965503;28;20032;-86
2021/05/30 01:22:50;;;;;;;5.35;4.00;;;17.20;56.40;;;;;;4951994;28;20055;-90
2021/05/30 01:25:19;;;;;;;5.28;3.78;;;17.10;56.50;;;;;;4949760;28;20045;-90
2021/05/30 01:27:47;;;;;;;4.85;3.83;;;17.10;56.50;;;;;;4965857;28;20419;-90
2021/05/30 01:30:14;;;;;;;4.75;3.70;;;17.10;56.50;;;;;;4948034;28;20506;-90
2021/05/30 01:32:41;;;;;;;5.00;3.92;;;17.00;56.50;;;;;;4951574;28;20039;-90
2021/05/30 01:35:08;;;;;;;4.22;3.42;;;17.00;56.60;;;;;;4968058;28;20041;-90
2021/05/30 01:37:34;;;;;;;5.32;3.60;;;17.00;56.60;;;;;;4954688;28;20035;-90
2021/05/30 01:39:59;;;;;;;5.13;3.97;;;16.90;56.60;;;;;;4934924;28;20035;-89
2021/05/30 01:42:26;;;;;;;6.10;4.60;;;16.90;56.60;;;;;;4942781;28;20047;-91
2021/05/30 01:44:52;;;;;;;5.05;3.92;;;16.80;56.60;;;;;;4963586;28;20121;-84
2021/05/30 01:47:18;;;;;;;5.53;4.28;;;16.80;56.70;;;;;;4948164;28;20523;-90
2021/05/30 01:49:43;;;;;;;5.78;4.05;;;16.80;56.70;;;;;;4955401;28;20084;-89
2021/05/30 01:52:10;;;;;;;5.30;3.83;;;16.70;56.70;;;;;;4936208;28;20395;-90
2021/05/30 01:54:40;;;;;;;5.13;3.80;;;16.70;56.80;;;;;;4952549;28;20118;-90
2021/05/30 01:57:09;;;;;;;5.57;4.13;;;16.70;56.80;;;;;;4940486;28;20038;-89
2021/05/30 01:59:36;;;;;;;5.68;3.85;;;16.60;56.80;;;;;;4951283;28;20395;-89
2021/05/30 02:02:03;;;;;;;5.18;3.95;;;16.60;56.90;;;;;;4952398;28;20053;-84
2021/05/30 02:04:38;;;;;;;5.95;3.90;;;16.60;56.90;;;;;;4929922;28;20050;-89
2021/05/30 02:07:04;;;;;;;5.90;3.75;;;16.50;56.90;;;;;;4942719;28;20026;-86
2021/05/30 02:09:31;;;;;;;5.20;3.85;;;16.40;56.90;;;;;;4955556;28;20046;-90
2021/05/30 02:11:57;;;;;;;5.65;4.18;;;16.40;57.00;;;;;;4961849;28;20034;-88
2021/05/30 02:14:24;;;;;;;5.35;4.03;;;16.40;57.00;;;;;;4952111;28;20031;-86
2021/05/30 02:16:50;;;;;;;5.38;3.85;;;16.30;57.10;;;;;;4948378;28;20054;-88
2021/05/30 02:19:15;;;;;;;6.00;3.95;;;16.30;57.10;;;;;;4945926;28;20054;-85
2021/05/30 02:21:44;;;;;;;5.28;3.70;;;16.20;57.10;;;;;;4954024;28;20077;-89
2021/05/30 02:24:12;;;;;;;4.20;3.28;;;16.20;57.20;;;;;;4938205;28;20038;-89
2021/05/30 02:26:38;;;;;;;5.10;3.80;;;16.20;57.20;;;;;;4940694;28;20078;-89
2021/05/30 02:29:05;;;;;;;5.50;3.92;;;16.20;57.20;;;;;;4951385;28;20034;-89
2021/05/30 02:31:31;;;;;;;6.22;3.88;;;16.10;57.30;;;;;;4940967;28;21626;-88
2021/05/30 02:33:57;;;;;;;5.53;4.10;;;16.10;57.30;;;;;;4967926;28;20027;-89
2021/05/30 02:36:23;;;;;;;6.30;4.20;;;16.10;57.30;;;;;;4939699;28;20061;-90
2021/05/30 02:38:49;;;;;;;5.38;4.15;;;16.00;57.30;;;;;;4969831;28;20476;-88
2021/05/30 02:41:15;;;;;;;5.53;3.75;;;16.00;57.40;;;;;;4954529;28;20036;-88
2021/05/30 02:43:41;;;;;;;5.50;3.70;;;16.00;57.40;;;;;;4945475;28;20086;-90
2021/05/30 02:46:07;;;;;;;4.68;3.70;;;15.90;57.40;;;;;;4947151;28;20207;-90
2021/05/30 02:48:33;;;;;;;6.07;3.83;;;15.90;57.40;;;;;;4939868;29;20039;-89
2021/05/30 02:50:59;;;;;;;5.60;4.03;;;15.90;57.50;;;;;;4922906;28;20031;-89
2021/05/30 02:53:29;;;;;;;4.80;3.47;;;15.80;57.50;;;;;;4948329;28;20038;-89
2021/05/30 02:55:56;;;;;;;4.80;3.58;;;15.80;57.50;;;;;;4944017;28;20059;-88
2021/05/30 02:58:23;;;;;;;5.57;3.85;;;15.80;57.60;;;;;;4973272;28;20486;-89
2021/05/30 03:00:49;;;;;;;5.22;3.70;;;15.80;57.60;;;;;;4987497;28;20038;-87
2021/05/30 03:03:15;;;;;;;5.40;4.00;;;15.70;57.60;;;;;;4969951;28;20110;-87
2021/05/30 03:05:41;;;;;;;5.30;4.03;;;15.70;57.70;;;;;;4948984;29;20123;-89
2021/05/30 03:08:07;;;;;;;5.35;3.63;;;15.60;57.60;;;;;;4949714;28;20540;-88
2021/05/30 03:10:32;;;;;;;4.60;3.60;;;15.60;57.70;;;;;;4939305;28;20054;-88
2021/05/30 03:12:59;;;;;;;4.82;3.55;;;15.60;57.70;;;;;;4948557;28;20277;-86
2021/05/30 03:15:26;;;;;;;4.93;3.75;;;15.50;57.70;;;;;;4980839;28;20034;-89
2021/05/30 03:17:52;;;;;;;5.50;4.07;;;15.50;57.70;;;;;;4954795;28;20123;-90
2021/05/30 03:20:19;;;;;;;5.25;3.65;;;15.50;57.70;;;;;;4984516;28;20058;-89
2021/05/30 03:22:45;;;;;;;5.68;4.05;;;15.50;57.80;;;;;;4945915;28;20054;-89
2021/05/30 03:25:12;;;;;;;4.95;3.70;;;15.40;57.80;;;;;;4958795;28;20081;-89
2021/05/30 03:27:38;;;;;;;5.30;4.18;;;15.40;57.80;;;;;;4928867;28;20086;-89
2021/05/30 03:30:05;;;;;;;5.85;4.10;;;15.40;57.90;;;;;;4972055;28;20031;-90
2021/05/30 03:32:31;;;;;;;5.72;3.65;;;15.40;58.00;;;;;;4934782;28;20090;-87
2021/05/30 03:34:57;;;;;;;4.65;3.53;;;15.40;57.90;;;;;;4949700;28;20074;-87
2021/05/30 03:37:23;;;;;;;4.72;3.55;;;15.30;57.90;;;;;;4940556;28;20042;-86
2021/05/30 03:39:52;;;;;;;5.63;4.20;;;15.30;58.00;;;;;;4974958;28;20034;-89
2021/05/30 03:42:23;;;;;;;5.00;3.90;;;15.30;58.00;;;;;;4976934;28;20035;-90
2021/05/30 03:44:49;;;;;;;4.78;3.75;;;15.20;58.00;;;;;;4924000;28;20042;-90
2021/05/30 03:47:16;;;;;;;5.50;3.83;;;15.20;58.00;;;;;;4979343;28;20027;-90
2021/05/30 03:49:42;;;;;;;5.63;4.10;;;15.20;58.10;;;;;;4934423;28;20035;-84
2021/05/30 03:52:11;;;;;;;5.93;4.05;;;15.20;58.70;;;;;;4958333;28;20114;-91
2021/05/30 03:54:37;;;;;;;4.88;3.75;;;15.10;58.20;;;;;;4969248;28;20038;-86
2021/05/30 03:57:03;;;;;;;6.20;4.18;;;15.10;58.10;;;;;;4971190;28;20026;-85
2021/05/30 03:59:29;;;;;;;5.07;4.07;;;15.10;58.20;;;;;;4968776;28;20027;-89
2021/05/30 04:01:55;;;;;;;5.20;4.00;;;15.00;58.20;;;;;;4987280;28;20030;-87
2021/05/30 04:04:21;;;;;;;6.80;4.40;;;15.00;58.20;;;;;;4977692;28;20098;-89
2021/05/30 04:06:46;;;;;;;5.93;4.00;;;15.00;58.30;;;;;;4961790;28;20058;-88
2021/05/30 04:09:12;;;;;;;5.75;4.18;;;15.00;58.30;;;;;;4960444;28;20429;-86
2021/05/30 04:11:38;;;;;;;5.38;4.05;;;15.00;58.40;;;;;;4972655;28;20047;-88
2021/05/30 04:14:04;;;;;;;5.65;4.05;;;14.90;58.40;;;;;;4939514;28;20484;-88
2021/05/30 04:16:30;;;;;;;5.93;4.45;;;14.90;58.40;;;;;;4967284;28;20508;-88
2021/05/30 04:18:55;;;;;;;6.43;4.40;;;14.90;58.40;;;;;;4957121;28;20035;-89
2021/05/30 04:21:21;;;;;;;5.85;4.30;;;14.90;58.50;;;;;;4937583;28;20038;-84
2021/05/30 04:23:47;;;;;;;5.97;4.00;;;14.80;58.50;;;;;;4948437;28;20540;-89
2021/05/30 04:26:13;;;;;;;5.22;3.83;;;14.80;58.50;;;;;;4950326;28;20062;-88
2021/05/30 04:28:39;;;;;;;5.70;4.40;;;14.80;58.60;;;;;;4973994;28;20034;-90
2021/05/30 04:31:05;;;;;;;5.50;4.18;;;14.80;58.60;;;;;;4953769;28;20023;-83
2021/05/30 04:33:30;;;;;;;6.03;4.68;;;14.70;58.60;;;;;;4958150;28;20038;-89
2021/05/30 04:35:56;;;;;;;5.57;4.35;;;14.80;58.70;;;;;;4945973;28;20046;-89
2021/05/30 04:38:22;;;;;;;5.78;4.22;;;14.70;58.60;;;;;;4968397;28;20052;-86
2021/05/30 04:40:49;;;;;;;6.82;4.78;;;14.70;58.70;;;;;;4925170;29;20086;-88
2021/05/30 04:43:16;;;;;;;5.82;4.35;;;14.70;58.70;;;;;;4956103;28;20030;-85
2021/05/30 04:45:43;;;;;;;5.72;4.40;;;14.70;58.80;;;;;;4952700;28;20549;-88
2021/05/30 04:48:08;;;;;;;6.35;4.53;;;14.70;59.40;;;;;;4957429;28;20062;-88
2021/05/30 04:50:34;;;;;;;6.47;4.90;;;14.70;58.80;;;;;;4953722;28;20062;-89
2021/05/30 04:53:00;;;;;;;5.40;4.05;;;14.70;58.90;;;;;;4953703;28;20426;-88
2021/05/30 04:55:26;;;;;;;5.95;4.43;;;14.70;58.90;;;;;;4937441;28;20035;-89
2021/05/30 04:57:52;;;;;;;6.20;4.57;;;14.60;58.90;;;;;;4945899;28;20035;-89
2021/05/30 05:00:18;;;;;;;6.53;5.00;;;14.60;58.90;;;;;;4952623;28;20030;-89
2021/05/30 05:02:44;;;;;;;5.70;4.43;;;14.60;59.00;;;;;;4929361;28;20027;-89
2021/05/30 05:05:11;;;;;;;6.18;4.50;;;14.60;59.00;;;;;;4943699;28;20037;-88
2021/05/30 05:07:40;;;;;;;6.85;5.07;;;14.60;59.00;;;;;;4951704;28;20050;-87
2021/05/30 05:10:07;;;;;;;6.78;4.95;;;14.60;59.10;;;;;;4939959;28;20022;-89
2021/05/30 05:12:33;;;;;;;5.68;4.38;;;14.60;59.10;;;;;;4938756;28;20027;-88
2021/05/30 05:14:59;;;;;;;6.15;4.05;;;14.50;59.10;;;;;;4966217;28;20069;-87
2021/05/30 05:17:25;;;;;;;5.70;4.35;;;14.50;59.10;;;;;;4952601;28;20502;-89
2021/05/30 05:19:51;;;;;;;5.93;4.38;;;14.50;59.20;;;;;;4938047;28;20030;-87
2021/05/30 05:22:17;;;;;;;6.30;4.40;;;14.50;59.20;;;;;;4951597;28;20051;-89
2021/05/30 05:24:43;;;;;;;6.15;4.43;;;14.50;59.20;;;;;;4939205;29;20042;-88
2021/05/30 05:27:08;;;;;;;7.47;4.80;;;14.50;59.30;;;;;;4918926;29;20035;-89
2021/05/30 05:29:35;;;;;;;6.80;5.05;;;14.50;59.30;;;;;;4937363;29;20082;-85
2021/05/30 05:32:01;;;;;;;6.10;5.07;;;14.50;59.30;;;;;;4949459;28;20035;-86
2021/05/30 05:34:27;;;;;;;5.97;4.32;;;14.50;59.30;;;;;;4917866;29;20055;-88
2021/05/30 05:36:53;;;;;;;6.30;4.80;;;14.50;59.40;;;;;;4944153;28;20035;-90
2021/05/30 05:39:19;;;;;;;6.45;4.90;;;14.50;59.40;;;;;;4928812;29;20396;-89
2021/05/30 05:41:45;;;;;;;8.02;5.32;;;14.50;59.40;;;;;;4931843;29;20070;-86
2021/05/30 05:44:11;;;;;;;6.35;4.57;;;14.50;59.50;;;;;;4920651;29;20428;-87
2021/05/30 05:46:37;;;;;;;6.13;4.60;;;14.50;59.50;;;;;;4934952;29;20035;-88
2021/05/30 05:49:02;;;;;;;5.45;4.28;;;14.50;59.50;;;;;;4928401;29;20031;-88
2021/05/30 05:51:28;;;;;;;6.60;5.10;;;14.50;59.50;;;;;;4922458;29;20085;-89
2021/05/30 05:53:54;;;;;;;7.50;4.78;;;14.50;59.50;;;;;;4922469;29;20641;-88
2021/05/30 05:56:20;;;;;;;7.07;5.03;;;14.50;59.50;;;;;;4921401;29;20090;-90
2021/05/30 05:58:46;;;;;;;6.45;4.78;;;14.50;59.50;;;;;;4919908;29;20044;-92
2021/05/30 06:01:12;;;;;;;5.90;4.38;;;14.50;59.60;;;;;;4930134;29;20027;-89
2021/05/30 06:03:38;;;;;;;6.65;4.90;;;14.50;59.60;;;;;;4938307;29;20040;-86
2021/05/30 06:06:04;;;;;;;6.75;5.03;;;14.50;59.60;;;;;;4935036;28;20038;-90
2021/05/30 06:08:31;;;;;;;6.53;4.80;;;14.50;59.70;;;;;;4951890;29;20090;-89
2021/05/30 06:10:57;;;;;;;7.60;5.43;;;14.50;59.70;;;;;;4928509;29;20035;-87
2021/05/30 06:13:23;;;;;;;5.80;4.65;;;14.50;59.70;;;;;;4921397;29;20035;-88
2021/05/30 06:15:49;;;;;;;6.15;4.93;;;14.50;59.80;;;;;;4931664;29;20031;-85
2021/05/30 06:18:16;;;;;;;6.15;4.45;;;14.50;59.80;;;;;;4911425;29;20035;-86
2021/05/30 06:20:44;;;;;;;6.32;5.07;;;14.50;59.80;;;;;;4925491;29;20393;-86
2021/05/30 06:23:11;;;;;;;6.22;4.90;;;14.50;59.80;;;;;;4957431;28;20047;-87
2021/05/30 06:25:37;;;;;;;6.43;4.95;;;14.50;59.90;;;;;;4953032;28;20484;-87
2021/05/30 06:28:04;;;;;;;5.75;4.50;;;14.50;59.90;;;;;;4951049;28;20114;-86
2021/05/30 06:30:34;;;;;;;6.65;4.72;;;14.50;59.90;;;;;;4950929;28;20034;-87
2021/05/30 06:33:00;;;;;;;6.72;5.38;;;14.50;59.90;;;;;;4967100;28;20023;-90
2021/05/30 06:35:28;;;;;;;6.00;4.70;;;14.50;59.90;;;;;;4955713;28;20038;-82
2021/05/30 06:37:55;;;;;;;6.70;5.18;;;14.50;60.00;;;;;;4954178;28;20468;-88
2021/05/30 06:40:20;;;;;;;6.85;5.05;;;14.50;60.00;;;;;;4964834;28;20027;-88
2021/05/30 06:42:47;;;;;;;6.43;5.00;;;14.50;60.00;;;;;;4954726;28;20097;-88
2021/05/30 06:45:13;;;;;;;7.30;5.55;;;14.60;60.10;;;;;;4953159;28;20031;-87
2021/05/30 06:47:39;;;;;;;6.65;5.40;;;14.60;60.10;;;;;;4918662;28;20042;-88
2021/05/30 06:50:05;;;;;;;7.03;5.28;;;14.60;60.10;;;;;;4951403;28;20027;-85
2021/05/30 06:52:31;;;;;;;6.15;4.70;;;14.60;60.10;;;;;;4933197;28;20030;-86
2021/05/30 06:54:57;;;;;;;7.22;5.28;;;14.60;60.20;;;;;;4943148;28;20039;-86
2021/05/30 06:57:23;;;;;;;7.18;5.07;;;14.60;60.10;;;;;;4961527;28;20150;-87
2021/05/30 06:59:49;;;;;;;6.88;5.10;;;14.60;60.10;;;;;;4945672;28;20039;-86
2021/05/30 07:02:15;;;;;;;7.25;5.45;;;14.60;60.10;;;;;;4948574;28;20061;-86
2021/05/30 07:04:42;;;;;;;6.55;5.05;;;14.60;60.20;;;;;;4958294;28;20039;-89
2021/05/30 07:07:07;;;;;;;6.75;4.60;;;14.70;60.20;;;;;;4931347;28;20027;-89
2021/05/30 07:09:33;;;;;;;7.50;5.43;;;14.70;60.30;;;;;;4962290;28;20384;-87
2021/05/30 07:11:59;;;;;;;6.32;4.95;;;14.70;60.30;;;;;;4921891;28;20038;-88
2021/05/30 07:14:25;;;;;;;6.53;5.22;;;14.70;60.30;;;;;;4933984;28;20039;-86
2021/05/30 07:16:53;;;;;;;8.18;5.28;;;14.70;60.40;;;;;;4931004;29;20028;-85
2021/05/30 07:19:19;;;;;;;6.78;5.18;;;14.70;60.40;;;;;;4959233;28;20114;-85
2021/05/30 07:21:45;;;;;;;7.55;5.22;;;14.80;60.50;;;;;;4942449;28;20067;-82
2021/05/30 07:24:11;;;;;;;6.75;5.55;;;14.80;60.40;;;;;;4960977;28;20069;-85
2021/05/30 07:26:40;;;;;;;6.25;5.05;;;14.80;60.40;;;;;;4962026;28;20144;-85
2021/05/30 07:29:05;;;;;;;7.13;5.57;;;14.80;60.40;;;;;;4963447;28;20049;-85
2021/05/30 07:31:31;;;;;;;6.75;5.38;;;14.90;60.40;;;;;;4967543;28;20543;-88
2021/05/30 07:33:57;;;;;;;6.88;5.47;;;14.90;60.40;;;;;;4973755;28;20089;-84
2021/05/30 07:36:24;;;;;;;7.18;5.38;;;14.90;60.40;;;;;;4963949;28;20038;-85
2021/05/30 07:38:50;;;;;;;7.50;5.65;;;15.00;60.40;;;;;;4948183;28;20030;-88
2021/05/30 07:41:16;;;;;;;7.00;5.40;;;15.00;60.30;;;;;;4971045;28;20468;-87
2021/05/30 07:43:55;;;;;;;;;;;;;;;;;;;;;
2021/05/30 07:46:32;;;;;;;7.45;5.40;;;15.10;60.30;;;;;;4953739;28;20069;-89
2021/05/30 07:49:06;;;;;;;6.38;5.07;;;15.20;60.20;;;;;;4971335;28;20023;-88
2021/05/30 07:51:32;;;;;;;6.80;4.72;;;15.20;60.10;;;;;;4956440;28;20050;-89
2021/05/30 07:54:03;;;;;;;6.82;5.43;;;15.30;60.00;;;;;;4967948;28;20745;-90
2021/05/30 07:56:36;;;;;;;6.40;5.03;;;15.30;60.00;;;;;;4972147;28;20122;-92
2021/05/30 07:59:02;;;;;;;6.80;5.22;;;15.40;59.90;;;;;;4963785;28;20027;-87
2021/05/30 08:01:31;;;;;;;7.13;5.20;;;15.50;59.90;;;;;;4987040;28;20130;-86
2021/05/30 08:04:00;;;;;;;7.60;5.30;;;15.50;59.80;;;;;;4945943;28;20027;-87
2021/05/30 08:06:28;;;;;;;7.07;5.65;;;15.60;59.80;;;;;;4971155;28;20031;-87
2021/05/30 08:08:54;;;;;;;6.70;5.35;;;15.70;59.80;;;;;;4955808;28;20352;-87
2021/05/30 08:11:20;;;;;;;6.97;5.50;;;15.80;59.70;;;;;;4965892;28;20037;-86
2021/05/30 08:13:46;;;;;;;6.13;4.95;;;15.90;59.70;;;;;;4968085;28;20391;-86
2021/05/30 08:16:12;;;;;;;6.38;5.22;;;15.90;59.60;;;;;;4980483;28;20555;-84
2021/05/30 08:18:38;;;;;;;7.05;5.28;;;16.00;59.50;;;;;;4961799;28;20037;-85
2021/05/30 08:21:04;;;;;;;6.38;5.07;;;16.10;59.40;;;;;;4984856;28;20034;-85
2021/05/30 08:23:30;;;;;;;7.45;5.20;;;16.20;60.10;;;;;;4936122;28;20054;-85
2021/05/30 08:25:56;;;;;;;7.35;5.30;;;16.20;59.30;;;;;;4954640;28;20027;-85
2021/05/30 08:28:22;;;;;;;6.82;5.10;;;16.30;59.30;;;;;;4982120;28;20026;-86
2021/05/30 08:30:48;;;;;;;6.53;4.97;;;16.40;59.20;;;;;;4954588;28;20066;-85
2021/05/30 08:33:14;;;;;;;6.60;5.03;;;16.40;59.10;;;;;;4960157;28;20441;-84
2021/05/30 08:35:40;;;;;;;6.93;5.50;;;16.50;59.20;;;;;;4935998;28;20062;-87
2021/05/30 08:38:08;;;;;;;6.88;5.47;;;16.60;59.10;;;;;;4961987;28;20511;-90
2021/05/30 08:40:34;;;;;;;5.90;4.63;;;16.70;59.00;;;;;;4984087;28;20062;-86
2021/05/30 08:43:00;;;;;;;6.18;4.90;;;16.80;58.90;;;;;;4959425;28;20357;-87
2021/05/30 08:45:28;;;;;;;7.00;5.45;;;16.90;58.90;;;;;;4967017;28;20054;-87
2021/05/30 08:47:54;;;;;;;6.50;5.10;;;16.90;58.90;;;;;;4969184;28;20027;-86
2021/05/30 08:50:20;;;;;;;6.32;4.85;;;17.00;58.90;;;;;;4949567;28;20027;-92
2021/05/30 08:52:46;;;;;;;6.45;5.03;;;17.10;58.90;;;;;;4966373;28;20035;-93
2021/05/30 08:55:12;;;;;;;5.88;4.50;;;17.20;58.80;;;;;;4981540;28;20127;-93
2021/05/30 08:57:42;;;;;;;5.95;4.72;;;17.30;58.80;;;;;;4970964;28;20066;-96
2021/05/30 09:00:11;;;;;;;6.78;4.72;;;17.40;58.80;;;;;;4983726;28;20042;-95
2021/05/30 09:02:37;;;;;;;6.05;4.57;;;17.50;58.60;;;;;;4952780;28;20031;-82
2021/05/30 09:05:08;;;;;;;7.35;5.40;;;17.60;58.70;;;;;;4925879;28;20105;-81
2021/05/30 09:07:42;;;;;;;8.57;5.78;;;17.70;59.00;;;;;;4951031;28;20039;-86
2021/05/30 09:10:13;;;;;;;8.07;6.43;;;17.90;59.00;;;;;;4968018;28;20507;-82
2021/05/30 09:12:40;;;;;;;7.38;5.82;;;18.00;58.90;;;;;;4965340;28;20034;-81
2021/05/30 09:15:37;;;;;;;8.25;6.40;;;18.10;58.80;;;;;;4933935;28;20067;-81
2021/05/30 09:18:19;;;;;;;7.43;6.47;;;18.20;59.10;;;;;;4968118;28;20041;-80
2021/05/30 09:20:57;;;;;;;7.20;5.88;;;18.30;58.90;;;;;;4952853;28;20035;-81
2021/05/30 09:23:35;;;;;;;6.97;5.53;;;18.40;58.60;;;;;;4961784;28;20055;-83
2021/05/30 09:26:07;;;;;;;6.70;5.35;;;18.50;58.60;;;;;;4967404;28;20035;-81
2021/05/30 09:28:33;;;;;;;6.93;5.30;;;18.70;58.60;;;;;;4966338;28;20027;-80
2021/05/30 09:31:03;;;;;;;7.00;5.55;;;18.80;58.40;;;;;;4950547;28;20127;-81
2021/05/30 09:33:30;;;;;;;7.30;5.80;;;18.90;58.30;;;;;;4936055;28;20054;-79
2021/05/30 09:35:58;;;;;;;7.10;5.88;;;19.00;58.30;;;;;;4937329;28;20045;-85
2021/05/30 09:38:29;;;;;;;7.25;5.68;;;19.10;58.00;;;;;;4978373;28;20054;-80
2021/05/30 09:41:01;;;;;;;7.60;5.75;;;19.20;58.00;;;;;;4981699;28;20055;-86
2021/05/30 09:43:35;;;;;;;7.05;5.53;;;19.40;58.00;;;;;;4984609;28;20027;-81
2021/05/30 09:46:20;;;;;;;7.18;5.90;;;19.50;57.80;;;;;;4936792;28;20045;-81
2021/05/30 09:48:49;;;;;;;7.10;5.90;;;19.60;57.80;;;;;;4965850;28;20035;-81
2021/05/30 09:51:28;;;;;;;7.05;5.50;;;19.70;57.40;;;;;;4948708;28;20082;-82
2021/05/30 09:54:18;;;;;;;7.75;5.78;;;19.80;57.20;;;;;;4964183;28;20035;-81
2021/05/30 09:56:46;;;;;;;6.45;4.50;;;19.90;57.00;;;;;;4968437;28;20452;-80
2021/05/30 09:59:17;;;;;;;6.30;5.10;;;20.00;56.80;;;;;;4950759;28;20031;-80
2021/05/30 10:01:58;;;;;;;6.72;4.90;;;20.10;56.60;;;;;;4961289;28;20026;-80
2021/05/30 10:04:32;;;;;;;6.55;5.05;;;20.20;57.10;;;;;;4963562;28;20027;-80
2021/05/30 10:06:59;;;;;;;5.70;4.35;;;20.30;56.40;;;;;;4962572;28;20023;-80
2021/05/30 10:09:26;;;;;;;6.55;5.47;;;20.40;56.20;;;;;;4963971;28;20127;-80
2021/05/30 10:11:52;;;;;;;7.00;5.18;;;20.50;56.10;;;;;;4964808;28;20123;-81
2021/05/30 10:14:19;;;;;;;6.88;5.60;;;20.60;56.00;;;;;;4963581;28;20512;-80
2021/05/30 10:16:45;;;;;;;6.45;5.28;;;20.70;55.80;;;;;;4944370;28;20051;-80
2021/05/30 10:19:29;;;;;;;5.80;4.78;;;20.80;55.70;;;;;;4944863;28;20027;-80
2021/05/30 10:21:57;;;;;;;6.57;5.33;;;20.80;55.60;;;;;;4966181;28;20122;-81
2021/05/30 10:24:24;;;;;;;6.93;5.28;;;20.90;55.30;;;;;;4938529;28;20290;-80
2021/05/30 10:27:24;;;;;;;5.93;4.63;;;21.00;55.10;;;;;;4958641;28;20019;-80
2021/05/30 10:30:11;;;;;;;5.88;4.63;;;21.10;55.10;;;;;;4951474;28;20050;-81
2021/05/30 10:32:41;;;;;;;5.40;4.20;;;21.10;54.70;;;;;;4944215;28;20037;-81
2021/05/30 10:35:25;;;;;;;5.85;4.05;;;21.30;54.40;;;;;;4965855;28;20035;-80
2021/05/30 10:37:52;;;;;;;6.00;4.40;;;21.40;54.20;;;;;;4936661;28;20035;-81
2021/05/30 10:40:24;;;;;;;6.53;4.65;;;21.40;53.90;;;;;;4966188;28;20034;-82
2021/05/30 10:43:11;;;;;;;5.57;4.15;;;21.50;53.80;;;;;;4948622;28;20042;-81
2021/05/30 10:45:43;;;;;;;5.35;3.90;;;21.60;53.50;;;;;;4954906;28;20023;-81
2021/05/30 10:48:12;;;;;;;5.47;3.90;;;21.70;53.00;;;;;;4963129;28;20058;-82
2021/05/30 10:50:48;;;;;;;5.32;4.10;;;21.80;52.70;;;;;;4943058;28;20031;-82
2021/05/30 10:53:35;;;;;;;5.15;3.83;;;21.80;52.40;;;;;;4964437;28;20879;-81
2021/05/30 10:56:24;;;;;;;4.40;3.58;;;21.90;52.30;;;;;;4960590;28;20039;-80
2021/05/30 10:59:09;;;;;;;5.35;3.53;;;22.00;52.20;;;;;;4931271;28;20031;-81
2021/05/30 11:01:34;;;;;;;5.05;3.42;;;22.10;52.00;;;;;;4964227;28;20464;-81
2021/05/30 11:04:39;;;;;;;3.42;2.72;;;22.20;51.80;;;;;;4955570;28;20050;-80
2021/05/30 11:07:20;;;;;;;4.13;2.97;;;22.30;51.80;;;;;;4896194;29;20028;-79
2021/05/30 11:09:49;;;;;;;4.68;3.30;;;22.40;51.60;;;;;;4897598;29;20088;-80
2021/05/30 11:12:28;;;;;;;4.20;2.80;;;22.40;51.10;;;;;;4914663;28;20476;-80
2021/05/30 11:15:09;;;;;;;4.00;3.08;;;22.50;50.80;;;;;;4958602;28;20027;-80
2021/05/30 11:17:41;;;;;;;4.65;3.05;;;22.50;50.20;;;;;;4944834;28;20118;-81
2021/05/30 11:20:08;;;;;;;3.83;2.78;;;22.60;50.30;;;;;;4959790;28;20051;-80
2021/05/30 11:22:49;;;;;;;3.97;2.85;;;22.60;50.10;;;;;;4965452;28;20086;-80
2021/05/30 11:25:22;;;;;;;4.00;2.55;;;22.60;50.00;;;;;;4949256;28;20035;-80
2021/05/30 11:27:56;;;;;;;3.88;2.80;;;22.70;49.90;;;;;;4964464;28;20059;-80
2021/05/30 11:30:50;;;;;;;4.50;3.08;;;22.70;49.90;;;;;;4939899;28;20078;-80
2021/05/30 11:33:21;;;;;;;5.63;2.95;;;22.80;49.70;;;;;;4950424;28;20027;-82
2021/05/30 11:35:55;;;;;;;4.38;3.15;;;22.80;49.70;;;;;;4956986;28;20046;-80
2021/05/30 11:38:34;;;;;;;4.70;2.90;;;22.90;49.70;;;;;;4947287;28;20034;-82
2021/05/30 11:41:21;;;;;;;4.30;2.92;;;22.90;49.50;;;;;;4941478;28;20027;-80
2021/05/30 11:44:02;;;;;;;4.60;3.00;;;22.90;49.40;;;;;;4955383;28;20074;-80
2021/05/30 11:46:30;;;;;;;3.90;2.63;;;22.90;49.20;;;;;;4964615;28;20488;-80
2021/05/30 11:49:06;;;;;;;4.25;2.97;;;22.90;49.30;;;;;;4950527;28;20062;-80
2021/05/30 11:52:08;;;;;;;3.17;2.55;;;22.90;49.10;;;;;;4950050;28;20023;-80
2021/05/30 11:54:46;;;;;;;4.20;2.92;;;23.00;49.40;;;;;;4942780;28;20050;-79
2021/05/30 11:57:20;;;;;;;3.30;2.55;;;23.00;49.30;;;;;;4967415;28;20158;-78
2021/05/30 11:59:59;;;;;;;4.40;2.75;;;23.00;49.10;;;;;;4961578;28;20034;-79
2021/05/30 12:02:41;;;;;;;4.25;2.72;;;23.00;49.00;;;;;;4956200;28;20499;-78
2021/05/30 12:05:13;;;;;;;4.00;2.70;;;23.00;49.00;;;;;;4951921;28;20043;-78
2021/05/30 12:07:39;;;;;;;3.58;2.58;;;23.00;48.70;;;;;;4956164;28;20117;-78
2021/05/30 12:10:10;;;;;;;3.13;2.55;;;23.00;48.80;;;;;;4966187;28;20030;-80
2021/05/30 12:12:38;;;;;;;4.65;3.03;;;23.10;48.70;;;;;;4940527;28;20138;-79
2021/05/30 12:15:11;;;;;;;3.80;2.72;;;23.10;48.70;;;;;;4946231;28;20106;-78
2021/05/30 12:17:38;;;;;;;2.97;2.17;;;23.10;48.70;;;;;;4955936;28;20081;-82
2021/05/30 12:20:15;;;;;;;3.15;2.20;;;23.10;48.70;;;;;;4968048;28;20103;-84
2021/05/30 12:22:41;;;;;;;3.78;2.58;;;23.10;48.80;;;;;;4963617;28;20377;-84
2021/05/30 12:25:13;;;;;;;3.33;2.42;;;23.20;49.10;;;;;;4934000;28;20383;-86
2021/05/30 12:27:39;;;;;;;3.63;2.20;;;23.20;49.40;;;;;;4972486;28;20035;-85
2021/05/30 12:30:06;;;;;;;3.13;2.40;;;23.20;49.80;;;;;;4937544;28;20042;-84
2021/05/30 12:32:32;;;;;;;4.00;2.50;;;23.20;50.10;;;;;;4939776;28;20062;-83
2021/05/30 12:34:58;;;;;;;2.67;2.13;;;23.30;50.40;;;;;;4953664;28;20066;-89
2021/05/30 12:37:44;;;;;;;2.90;2.00;;;23.30;50.60;;;;;;4970007;28;20027;-85
2021/05/30 12:40:12;;;;;;;2.80;1.98;;;23.30;50.90;;;;;;4957452;28;20030;-82
2021/05/30 12:42:40;;;;;;;3.35;2.20;;;23.30;51.00;;;;;;4954352;28;20027;-85
2021/05/30 12:45:10;;;;;;;2.35;2.03;;;23.40;51.10;;;;;;4957992;28;20030;-87
2021/05/30 12:47:42;;;;;;;2.72;2.15;;;23.40;51.20;;;;;;4972099;28;20035;-86
2021/05/30 12:50:10;;;;;;;2.92;2.05;;;23.40;51.30;;;;;;4973695;28;20084;-85
2021/05/30 12:52:48;;;;;;;2.58;1.85;;;23.50;51.50;;;;;;4956756;28;20093;-86
2021/05/30 12:55:15;;;;;;;2.45;1.85;;;23.40;51.50;;;;;;4947361;28;20035;-86
2021/05/30 12:57:49;;;;;;;3.05;1.95;;;23.40;51.60;;;;;;4923663;28;20094;-86